Time,TemperatureF,DewpointF,PressureIn,WindDirection,WindDirectionDegrees,WindSpeedMPH,WindSpeedGustMPH,Humidity,HourlyPrecipIn,Conditions,Clouds,dailyrainin,SolarRadiationWatts/m^2,SoftwareType,DateUTC
2013-02-02 00:03:00,0.0,-5.0,30.07,NW,322,0.0,4.0,80,0.00,,,0.00,0,weatherlink.com 1.10,2013-02-02 05:03:00,
2013-02-02 00:18:00,0.2,-4.0,30.07,NW,322,1.0,2.0,81,0.00,,,0.00,0,weatherlink.com 1.10,2013-02-02 05:18:00,
2013-02-02 00:33:00,0.6,-4.0,30.07,NW,322,1.0,4.0,80,0.00,,,0.00,0,weatherlink.com 1.10,2013-02-02 05:33:00,
2013-02-02 00:48:00,0.8,-4.0,30.07,NW,322,0.0,4.0,79,0.00,,,0.00,0,weatherlink.com 1.10,2013-02-02 05:48:00,
2013-02-02 01:03:00,0.5,-4.0,30.07,NW,322,0.0,1.0,80,0.00,,,0.00,0,weatherlink.com 1.10,2013-02-02 06:03:00,
2013-02-02 01:19:00,0.4,-4.0,30.06,NW,322,0.0,2.0,80,0.00,,,0.00,0,weatherlink.com 1.10,2013-02-02 06:19:00,
2013-02-02 01:34:00,0.5,-4.0,30.06,NW,322,1.0,2.0,80,0.00,,,0.00,0,weatherlink.com 1.10,2013-02-02 06:34:00,
2013-02-02 01:49:00,0.5,-4.0,30.06,NW,322,0.0,2.0,80,0.00,,,0.00,0,weatherlink.com 1.10,2013-02-02 06:49:00,
2013-02-02 02:04:00,1.1,-4.0,30.06,NW,322,2.0,5.0,80,0.00,,,0.00,0,weatherlink.com 1.10,2013-02-02 07:04:00,
2013-02-02 02:19:00,1.4,-3.0,30.06,NW,322,0.0,3.0,80,0.00,,,0.00,0,weatherlink.com 1.10,2013-02-02 07:19:00,
2013-02-02 02:34:00,0.9,-4.0,30.06,NW,322,0.0,2.0,80,0.00,,,0.00,0,weatherlink.com 1.10,2013-02-02 07:34:00,
2013-02-02 02:49:00,0.2,-5.0,30.06,NW,322,1.0,2.0,80,0.00,,,0.00,0,weatherlink.com 1.10,2013-02-02 07:49:00,
2013-02-02 03:19:00,-0.7,-5.0,30.07,NW,322,0.0,3.0,81,0.00,,,0.00,0,weatherlink.com 1.10,2013-02-02 08:19:00,
2013-02-02 03:34:00,-0.9,-5.0,30.07,NW,322,0.0,2.0,81,0.00,,,0.00,0,weatherlink.com 1.10,2013-02-02 08:34:00,
2013-02-02 03:49:00,-1.0,-6.0,30.06,NW,322,0.0,1.0,81,0.00,,,0.00,0,weatherlink.com 1.10,2013-02-02 08:49:00,
2013-02-02 04:04:00,-1.1,-5.0,30.06,NW,322,0.0,2.0,82,0.00,,,0.00,0,weatherlink.com 1.10,2013-02-02 09:04:00,
2013-02-02 04:19:00,-1.0,-5.0,30.06,NW,322,1.0,2.0,82,0.00,,,0.00,0,weatherlink.com 1.10,2013-02-02 09:19:00,
2013-02-02 04:35:00,-0.6,-5.0,30.06,NW,322,0.0,3.0,82,0.00,,,0.00,0,weatherlink.com 1.10,2013-02-02 09:35:00,
2013-02-02 04:49:00,-0.1,-4.0,30.06,NW,322,1.0,3.0,82,0.00,,,0.00,0,weatherlink.com 1.10,2013-02-02 09:49:00,
2013-02-02 05:05:00,0.2,-4.0,30.06,NW,322,0.0,3.0,82,0.00,,,0.00,0,weatherlink.com 1.10,2013-02-02 10:05:00,
2013-02-02 05:19:00,-0.1,-5.0,30.06,NW,322,0.0,4.0,81,0.00,,,0.00,0,weatherlink.com 1.10,2013-02-02 10:19:00,
2013-02-02 05:35:00,-0.7,-5.0,30.06,NW,322,0.0,0.0,81,0.00,,,0.00,0,weatherlink.com 1.10,2013-02-02 10:35:00,
2013-02-02 05:50:00,-1.1,-6.0,30.06,NW,322,1.0,2.0,81,0.00,,,0.00,0,weatherlink.com 1.10,2013-02-02 10:50:00,
2013-02-02 06:05:00,-1.2,-5.0,30.06,NW,322,1.0,2.0,82,0.00,,,0.00,0,weatherlink.com 1.10,2013-02-02 11:05:00,
2013-02-02 06:20:00,-1.2,-5.0,30.07,NW,322,0.0,2.0,82,0.00,,,0.00,0,weatherlink.com 1.10,2013-02-02 11:20:00,
2013-02-02 06:35:00,-1.4,-5.0,30.07,NW,322,0.0,1.0,83,0.00,,,0.00,0,weatherlink.com 1.10,2013-02-02 11:35:00,
2013-02-02 06:50:00,-2.0,-6.0,30.07,NW,322,0.0,1.0,83,0.00,,,0.00,0,weatherlink.com 1.10,2013-02-02 11:50:00,
2013-02-02 07:05:00,-1.8,-6.0,30.07,NW,322,0.0,1.0,83,0.00,,,0.00,0,weatherlink.com 1.10,2013-02-02 12:05:00,
2013-02-02 07:20:00,-2.0,-6.0,30.08,NW,322,0.0,0.0,83,0.00,,,0.00,0,weatherlink.com 1.10,2013-02-02 12:20:00,
2013-02-02 07:35:00,-2.2,-6.0,30.08,NW,322,0.0,0.0,83,0.00,,,0.00,0,weatherlink.com 1.10,2013-02-02 12:35:00,
2013-02-02 07:50:00,-2.5,-6.0,30.09,NW,322,0.0,1.0,83,0.00,,,0.00,0,weatherlink.com 1.10,2013-02-02 12:50:00,
2013-02-02 08:05:00,-2.3,-6.0,30.09,NW,322,0.0,1.0,84,0.00,,,0.00,0,weatherlink.com 1.10,2013-02-02 13:05:00,
2013-02-02 08:24:00,-1.0,-4.0,30.09,NW,322,1.0,2.0,85,0.00,,,0.00,9,weatherlink.com 1.10,2013-02-02 13:24:00,
2013-02-02 08:35:00,0.6,-3.0,30.09,NW,322,0.0,3.0,84,0.00,,,0.00,23,weatherlink.com 1.10,2013-02-02 13:35:00,
2013-02-02 08:51:00,1.1,-3.0,30.09,NW,322,0.0,1.0,84,0.00,,,0.00,42,weatherlink.com 1.10,2013-02-02 13:51:00,
2013-02-02 09:06:00,2.0,-2.0,30.09,NW,322,1.0,1.0,84,0.00,,,0.00,40,weatherlink.com 1.10,2013-02-02 14:06:00,
2013-02-02 09:21:00,3.1,-1.0,30.09,NW,322,1.0,3.0,84,0.00,,,0.00,74,weatherlink.com 1.10,2013-02-02 14:21:00,
2013-02-02 09:36:00,5.2,1.0,30.09,NW,322,1.0,3.0,83,0.00,,,0.00,74,weatherlink.com 1.10,2013-02-02 14:36:00,
2013-02-02 09:51:00,6.7,2.0,30.10,NW,322,1.0,4.0,82,0.00,,,0.00,76,weatherlink.com 1.10,2013-02-02 14:51:00,
2013-02-02 10:06:00,6.7,2.0,30.10,NW,322,1.0,3.0,81,0.00,,,0.00,134,weatherlink.com 1.10,2013-02-02 15:06:00,
2013-02-02 10:21:00,8.2,4.0,30.10,NW,322,0.0,3.0,82,0.00,,,0.00,281,weatherlink.com 1.10,2013-02-02 15:21:00,
2013-02-02 10:36:00,9.4,4.0,30.10,NW,322,2.0,4.0,80,0.00,,,0.00,207,weatherlink.com 1.10,2013-02-02 15:36:00,
2013-02-02 10:51:00,10.6,6.0,30.10,NW,322,1.0,3.0,80,0.00,,,0.00,330,weatherlink.com 1.10,2013-02-02 15:51:00,
2013-02-02 11:06:00,11.3,6.0,30.10,NW,322,4.0,4.0,79,0.00,,,0.00,225,weatherlink.com 1.10,2013-02-02 16:06:00,
2013-02-02 11:21:00,11.8,6.0,30.11,NW,322,2.0,4.0,78,0.00,,,0.00,202,weatherlink.com 1.10,2013-02-02 16:21:00,
2013-02-02 11:37:00,11.6,6.0,30.11,NW,322,3.0,5.0,78,0.00,,,0.00,267,weatherlink.com 1.10,2013-02-02 16:37:00,
2013-02-02 11:51:00,12.8,7.0,30.11,NW,322,3.0,5.0,77,0.00,,,0.00,564,weatherlink.com 1.10,2013-02-02 16:51:00,
2013-02-02 12:06:00,13.2,7.0,30.10,NW,322,2.0,4.0,76,0.00,,,0.00,578,weatherlink.com 1.10,2013-02-02 17:06:00,
2013-02-02 12:22:00,13.9,7.0,30.10,NW,322,2.0,4.0,75,0.00,,,0.00,540,weatherlink.com 1.10,2013-02-02 17:22:00,
2013-02-02 12:37:00,13.9,7.0,30.10,NW,322,0.0,4.0,74,0.00,,,0.00,360,weatherlink.com 1.10,2013-02-02 17:37:00,
2013-02-02 12:52:00,13.3,6.0,30.10,NW,322,2.0,7.0,71,0.00,,,0.00,155,weatherlink.com 1.10,2013-02-02 17:52:00,
2013-02-02 13:07:00,13.1,7.0,30.09,NW,322,1.0,4.0,75,0.00,,,0.00,563,weatherlink.com 1.10,2013-02-02 18:07:00,
2013-02-02 13:22:00,15.0,8.0,30.08,NW,322,3.0,4.0,74,0.00,,,0.00,578,weatherlink.com 1.10,2013-02-02 18:22:00,
2013-02-02 13:37:00,13.9,6.0,30.09,NW,322,2.0,5.0,72,0.00,,,0.00,130,weatherlink.com 1.10,2013-02-02 18:37:00,
2013-02-02 13:52:00,13.6,6.0,30.08,NW,322,0.0,5.0,73,0.00,,,0.00,446,weatherlink.com 1.10,2013-02-02 18:52:00,
2013-02-02 14:07:00,14.2,7.0,30.08,NW,322,0.0,6.0,73,0.00,,,0.00,519,weatherlink.com 1.10,2013-02-02 19:07:00,
2013-02-02 14:22:00,14.8,7.0,30.07,NW,322,2.0,6.0,72,0.00,,,0.00,501,weatherlink.com 1.10,2013-02-02 19:22:00,
2013-02-02 14:37:00,15.2,8.0,30.07,NW,322,0.0,4.0,72,0.00,,,0.00,450,weatherlink.com 1.10,2013-02-02 19:37:00,
2013-02-02 14:52:00,15.5,8.0,30.06,NW,322,1.0,3.0,71,0.00,,,0.00,429,weatherlink.com 1.10,2013-02-02 19:52:00,
2013-02-02 15:08:00,15.2,7.0,30.06,NW,322,0.0,3.0,71,0.00,,,0.00,65,weatherlink.com 1.10,2013-02-02 20:08:00,
2013-02-02 15:23:00,14.6,6.0,30.05,NW,322,0.0,3.0,70,0.00,,,0.00,330,weatherlink.com 1.10,2013-02-02 20:23:00,
2013-02-02 15:37:00,15.1,6.0,30.05,NW,322,2.0,5.0,68,0.00,,,0.00,125,weatherlink.com 1.10,2013-02-02 20:37:00,
2013-02-02 15:53:00,14.3,6.0,30.06,NW,322,3.0,3.0,70,0.00,,,0.00,132,weatherlink.com 1.10,2013-02-02 20:53:00,
2013-02-02 16:08:00,13.6,6.0,30.06,NW,322,0.0,5.0,71,0.00,,,0.00,79,weatherlink.com 1.10,2013-02-02 21:08:00,
2013-02-02 16:23:00,13.2,6.0,30.06,NW,322,0.0,3.0,72,0.00,,,0.00,51,weatherlink.com 1.10,2013-02-02 21:23:00,
2013-02-02 16:38:00,13.0,6.0,30.05,NW,322,2.0,2.0,72,0.00,,,0.00,32,weatherlink.com 1.10,2013-02-02 21:38:00,
2013-02-02 16:53:00,12.9,6.0,30.05,NW,322,0.0,2.0,73,0.00,,,0.00,33,weatherlink.com 1.10,2013-02-02 21:53:00,
2013-02-02 17:08:00,12.6,5.0,30.05,NW,322,0.0,2.0,72,0.00,,,0.00,21,weatherlink.com 1.10,2013-02-02 22:08:00,
2013-02-02 17:23:00,12.0,5.0,30.05,NW,322,0.0,1.0,74,0.00,,,0.00,14,weatherlink.com 1.10,2013-02-02 22:23:00,
2013-02-02 17:38:00,11.1,5.0,30.05,NW,322,0.0,1.0,76,0.00,,,0.00,9,weatherlink.com 1.10,2013-02-02 22:38:00,
2013-02-02 17:53:00,10.0,4.0,30.06,NW,322,0.0,0.0,76,0.00,,,0.00,0,weatherlink.com 1.10,2013-02-02 22:53:00,
2013-02-02 18:09:00,8.7,3.0,30.06,NW,322,0.0,0.0,77,0.00,,,0.00,0,weatherlink.com 1.10,2013-02-02 23:09:00,
2013-02-02 18:24:00,7.3,2.0,30.06,NW,322,0.0,0.0,78,0.00,,,0.00,0,weatherlink.com 1.10,2013-02-02 23:24:00,
2013-02-02 18:38:00,5.8,0.0,30.06,NW,322,0.0,0.0,77,0.00,,,0.00,0,weatherlink.com 1.10,2013-02-02 23:38:00,
2013-02-02 18:54:00,4.3,-1.0,30.06,NW,322,0.0,0.0,78,0.00,,,0.00,0,weatherlink.com 1.10,2013-02-02 23:54:00,
2013-02-02 19:09:00,3.1,-2.0,30.05,NW,322,0.0,1.0,79,0.00,,,0.00,0,weatherlink.com 1.10,2013-02-03 00:09:00,
2013-02-02 19:24:00,2.0,-3.0,30.06,NW,322,0.0,1.0,80,0.00,,,0.00,0,weatherlink.com 1.10,2013-02-03 00:24:00,
2013-02-02 19:39:00,0.9,-4.0,30.05,NW,322,0.0,0.0,81,0.00,,,0.00,0,weatherlink.com 1.10,2013-02-03 00:39:00,
2013-02-02 19:54:00,-0.1,-5.0,30.05,NW,322,0.0,0.0,81,0.00,,,0.00,0,weatherlink.com 1.10,2013-02-03 00:54:00,
2013-02-02 20:09:00,-1.0,-5.0,30.04,NW,322,0.0,1.0,82,0.00,,,0.00,0,weatherlink.com 1.10,2013-02-03 01:09:00,
2013-02-02 20:24:00,-1.4,-5.0,30.04,NW,322,0.0,1.0,83,0.00,,,0.00,0,weatherlink.com 1.10,2013-02-03 01:24:00,
2013-02-02 20:39:00,-2.0,-6.0,30.04,NW,322,0.0,0.0,83,0.00,,,0.00,0,weatherlink.com 1.10,2013-02-03 01:39:00,
2013-02-02 20:54:00,-2.7,-7.0,30.03,NW,322,0.0,0.0,83,0.00,,,0.00,0,weatherlink.com 1.10,2013-02-03 01:54:00,
2013-02-02 21:09:00,-3.1,-7.0,30.03,NW,322,0.0,0.0,83,0.00,,,0.00,0,weatherlink.com 1.10,2013-02-03 02:09:00,
2013-02-02 21:24:00,-3.6,-8.0,30.03,NW,322,0.0,0.0,82,0.00,,,0.00,0,weatherlink.com 1.10,2013-02-03 02:24:00,
2013-02-02 21:39:00,-3.6,-8.0,30.02,NW,322,0.0,1.0,83,0.00,,,0.00,0,weatherlink.com 1.10,2013-02-03 02:39:00,
2013-02-02 21:55:00,-3.6,-8.0,30.02,NW,322,0.0,1.0,83,0.00,,,0.00,0,weatherlink.com 1.10,2013-02-03 02:55:00,
2013-02-02 22:10:00,-2.7,-6.0,30.02,NW,322,0.0,1.0,84,0.00,,,0.00,0,weatherlink.com 1.10,2013-02-03 03:10:00,
2013-02-02 22:24:00,-2.2,-6.0,30.02,NW,322,0.0,1.0,83,0.00,,,0.00,0,weatherlink.com 1.10,2013-02-03 03:24:00,
2013-02-02 22:40:00,-2.2,-6.0,30.01,NW,322,0.0,0.0,84,0.00,,,0.00,0,weatherlink.com 1.10,2013-02-03 03:40:00,
2013-02-02 22:55:00,-3.0,-7.0,30.00,NW,322,0.0,1.0,82,0.00,,,0.00,0,weatherlink.com 1.10,2013-02-03 03:55:00,
2013-02-02 23:10:00,-3.3,-7.0,30.00,NW,322,0.0,1.0,83,0.00,,,0.00,0,weatherlink.com 1.10,2013-02-03 04:10:00,
2013-02-02 23:25:00,-3.2,-7.0,29.99,NW,322,0.0,1.0,83,0.00,,,0.00,0,weatherlink.com 1.10,2013-02-03 04:25:00,
2013-02-02 23:40:00,-2.9,-7.0,29.98,NW,322,0.0,0.0,84,0.00,,,0.00,0,weatherlink.com 1.10,2013-02-03 04:40:00,
2013-02-02 23:55:00,-2.5,-6.0,29.98,NW,322,0.0,1.0,84,0.00,,,0.00,0,weatherlink.com 1.10,2013-02-03 04:55:00,